Time;durP1;ratioP1;P1;durP2;ratioP2;P2;SDS_P1;SDS_P2;PMS_P1;PMS_P2;Temp;Humidity;BMP_temperature;BMP_pressure;BME280_temperature;BME280_humidity;BME280_pressure;Samples;Min_cycle;Max_cycle;Signal;HPM_P1;HPM_P2
2023/08/07 00:02:01;;;;;;;23.13;3.83;;;;;;;;;;5070783;28;20551;-73
2023/08/07 00:04:27;;;;;;;20.15;3.83;;;;;;;;;;5069341;28;20044;-72
2023/08/07 00:06:53;;;;;;;22.13;3.70;;;;;;;;;;5070845;28;20036;-72
2023/08/07 00:09:19;;;;;;;22.50;4.57;;;;;;;;;;5054116;28;20119;-72
2023/08/07 00:11:46;;;;;;;29.48;3.97;;;;;;;;;;5053965;28;20033;-72
2023/08/07 00:14:11;;;;;;;22.40;4.18;;;15.60;99.90;;;;;;5070337;28;20121;-72
2023/08/07 00:16:37;;;;;;;28.77;4.50;;;;;;;;;;5072161;28;20127;-72
2023/08/07 00:19:03;;;;;;;27.02;4.20;;;;;;;;;;5053839;28;20083;-73
2023/08/07 00:21:29;;;;;;;20.95;4.53;;;16.30;99.90;;;;;;5070892;28;20044;-72
2023/08/07 00:23:55;;;;;;;29.65;4.32;;;;;;;;;;5070304;28;20052;-73
2023/08/07 00:26:21;;;;;;;28.55;4.82;;;;;;;;;;5072478;28;20049;-73
2023/08/07 00:28:47;;;;;;;18.23;3.38;;;;;;;;;;5057299;28;20040;-73
2023/08/07 00:31:14;;;;;;;21.90;5.53;;;;;;;;;;5073308;28;20034;-73
2023/08/07 00:33:40;;;;;;;19.35;3.60;;;;;;;;;;5073510;28;20172;-73
2023/08/07 00:36:06;;;;;;;20.65;4.03;;;;;;;;;;5074018;28;20513;-74
2023/08/07 00:38:32;;;;;;;24.40;3.78;;;;;;;;;;5057468;28;20397;-73
2023/08/07 00:40:59;;;;;;;16.20;4.20;;;;;;;;;;5074308;28;20044;-73
2023/08/07 00:43:25;;;;;;;29.13;5.18;;;;;;;;;;5073675;28;20045;-73
2023/08/07 00:45:52;;;;;;;22.50;3.72;;;;;;;;;;5073637;28;20472;-73
2023/08/07 00:48:18;;;;;;;22.13;4.00;;;;;;;;;;5073882;28;20123;-73
2023/08/07 00:50:45;;;;;;;29.27;4.38;;;;;;;;;;5073943;28;20036;-73
2023/08/07 00:53:11;;;;;;;22.63;4.00;;;;;;;;;;5057002;28;20047;-73
2023/08/07 00:55:38;;;;;;;34.05;3.85;;;;;;;;;;5073872;28;20044;-73
2023/08/07 00:58:04;;;;;;;25.27;4.10;;;;;;;;;;5073885;28;20098;-73
2023/08/07 01:00:32;;;;;;;16.27;3.75;;;;;;;;;;5073589;28;20090;-72
2023/08/07 01:03:00;;;;;;;25.48;4.63;;;15.40;99.90;;;;;;5057441;28;20045;-73
2023/08/07 01:05:26;;;;;;;25.98;4.32;;;;;;;;;;5037117;28;20041;-73
2023/08/07 01:07:54;;;;;;;33.45;4.60;;;;;;;;;;5053911;28;20143;-73
2023/08/07 01:10:25;;;;;;;21.67;4.28;;;;;;;;;;5066044;28;20045;-73
2023/08/07 01:13:00;;;;;;;17.88;3.70;;;;;;;;;;5073271;28;20040;-73
2023/08/07 01:15:30;;;;;;;28.10;4.80;;;15.30;99.90;;;;;;5073112;28;20078;-73
2023/08/07 01:17:57;;;;;;;24.67;4.00;;;;;;;;;;5090235;28;20043;-73
2023/08/07 01:20:23;;;;;;;24.80;4.72;;;15.40;99.90;;;;;;5073046;28;20044;-72
2023/08/07 01:22:49;;;;;;;29.38;4.55;;;;;;;;;;5073082;28;20040;-73
2023/08/07 01:25:15;;;;;;;27.52;4.82;;;;;;;;;;5056082;28;20052;-73
2023/08/07 01:27:54;;;;;;;22.30;4.22;;;;;;;;;;5073479;28;20045;-73
2023/08/07 01:30:20;;;;;;;20.80;3.85;;;;;;;;;;5073047;28;20044;-73
2023/08/07 01:32:46;;;;;;;29.83;4.72;;;;;;;;;;5072660;28;20040;-73
2023/08/07 01:35:15;;;;;;;34.15;4.28;;;;;;;;;;5072421;28;20154;-73
2023/08/07 01:37:42;;;;;;;26.42;4.07;;;15.20;99.90;;;;;;5072015;28;20040;-73
2023/08/07 01:40:10;;;;;;;22.42;4.60;;;15.30;99.90;;;;;;5072529;28;20105;-73
2023/08/07 01:42:37;;;;;;;28.92;4.10;;;;;;;;;;5072380;28;20037;-73
2023/08/07 01:45:05;;;;;;;22.17;3.40;;;;;;;;;;5072662;28;20119;-73
2023/08/07 01:47:31;;;;;;;28.77;4.32;;;;;;;;;;5055840;28;20516;-73
2023/08/07 01:49:57;;;;;;;30.33;4.65;;;;;;;;;;5072372;28;20028;-73
2023/08/07 01:52:23;;;;;;;33.95;4.45;;;;;;;;;;5072430;28;20032;-73
2023/08/07 01:54:49;;;;;;;27.30;4.10;;;;;;;;;;5072373;28;20036;-74
2023/08/07 01:57:15;;;;;;;26.88;4.82;;;;;;;;;;5071555;28;20032;-73
2023/08/07 01:59:43;;;;;;;24.42;3.83;;;;;;;;;;5072571;28;20040;-73
2023/08/07 02:02:09;;;;;;;27.42;4.95;;;;;;;;;;5072692;28;20043;-73
2023/08/07 02:04:35;;;;;;;26.15;4.60;;;;;;;;;;5072496;28;20036;-73
2023/08/07 02:07:01;;;;;;;35.60;4.20;;;;;;;;;;5072569;28;20452;-73
2023/08/07 02:09:27;;;;;;;31.55;4.60;;;;;;;;;;5072632;28;20033;-73
2023/08/07 02:11:54;;;;;;;34.10;4.97;;;;;;;;;;5072229;28;20067;-72
2023/08/07 02:14:20;;;;;;;25.33;5.47;;;;;;;;;;5072629;28;20093;-73
2023/08/07 02:16:46;;;;;;;23.25;4.63;;;;;;;;;;5072463;28;20048;-73
2023/08/07 02:19:12;;;;;;;22.67;4.97;;;;;;;;;;5072229;28;20045;-73
2023/08/07 02:21:38;;;;;;;26.40;4.70;;;;;;;;;;5071934;28;20040;-73
2023/08/07 02:24:04;;;;;;;27.90;5.03;;;;;;;;;;5073169;28;20457;-72
2023/08/07 02:26:30;;;;;;;18.98;4.10;;;;;;;;;;5055079;28;20098;-73
2023/08/07 02:28:56;;;;;;;24.23;5.22;;;;;;;;;;5071695;28;20486;-72
2023/08/07 02:31:22;;;;;;;22.67;4.50;;;;;;;;;;5066837;28;20036;-73
2023/08/07 02:33:48;;;;;;;19.13;4.43;;;;;;;;;;5054288;28;20041;-72
2023/08/07 02:36:14;;;;;;;16.38;4.55;;;;;;;;;;5071580;28;20132;-72
2023/08/07 02:38:40;;;;;;;15.75;4.47;;;;;;;;;;5073118;28;20093;-72
2023/08/07 02:41:06;;;;;;;26.48;5.22;;;;;;;;;;5071634;28;20475;-72
2023/08/07 02:43:34;;;;;;;28.50;4.50;;;;;;;;;;5071875;28;20032;-72
2023/08/07 02:46:00;;;;;;;15.55;4.20;;;;;;;;;;5054681;28;20120;-72
2023/08/07 02:48:26;;;;;;;29.92;4.97;;;;;;;;;;5071399;28;20041;-72
2023/08/07 02:50:53;;;;;;;31.13;5.38;;;;;;;;;;5071680;28;20036;-72
2023/08/07 02:53:19;;;;;;;24.40;4.80;;;;;;;;;;5055264;28;20414;-72
2023/08/07 02:55:45;;;;;;;33.17;5.55;;;;;;;;;;5071360;28;20033;-71
2023/08/07 02:58:11;;;;;;;46.17;6.15;;;;;;;;;;5071902;28;20093;-71
2023/08/07 03:00:37;;;;;;;38.92;6.28;;;;;;;;;;5071388;28;20044;-71
2023/08/07 03:03:03;;;;;;;30.10;5.68;;;;;;;;;;5071471;28;20047;-71
2023/08/07 03:05:29;;;;;;;45.10;6.35;;;;;;;;;;5054210;28;20037;-72
2023/08/07 03:07:56;;;;;;;35.55;6.78;;;;;;;;;;5071497;28;20043;-71
2023/08/07 03:10:22;;;;;;;30.23;5.88;;;;;;;;;;5054695;28;20033;-72
2023/08/07 03:12:48;;;;;;;31.98;5.63;;;;;;;;;;5071100;28;20078;-72
2023/08/07 03:15:14;;;;;;;36.97;5.30;;;;;;;;;;5071241;28;20047;-72
2023/08/07 03:17:40;;;;;;;38.95;5.68;;;;;;;;;;5038245;28;20045;-71
2023/08/07 03:20:06;;;;;;;30.10;5.50;;;;;;;;;;5035069;28;20048;-71
2023/08/07 03:22:32;;;;;;;28.40;6.13;;;;;;;;;;5049294;28;20071;-71
2023/08/07 03:24:58;;;;;;;33.60;5.88;;;;;;;;;;5054477;28;20044;-72
2023/08/07 03:27:24;;;;;;;25.80;4.88;;;;;;;;;;5054477;28;20086;-71
2023/08/07 03:29:50;;;;;;;37.05;5.50;;;;;;;;;;5071030;28;20083;-72
2023/08/07 03:32:17;;;;;;;30.20;6.88;;;;;;;;;;5054458;28;20036;-71
2023/08/07 03:34:43;;;;;;;39.05;7.40;;;;;;;;;;5054439;28;20047;-71
2023/08/07 03:37:09;;;;;;;31.98;6.47;;;;;;;;;;5070795;28;20044;-71
2023/08/07 03:39:35;;;;;;;29.80;6.20;;;;;;;;;;5054788;28;20040;-72
2023/08/07 03:42:01;;;;;;;25.02;4.60;;;;;;;;;;5071124;28;20075;-71
2023/08/07 03:44:27;;;;;;;22.30;5.28;;;;;;;;;;5037467;28;20028;-72
2023/08/07 03:46:56;;;;;;;29.10;5.97;;;;;;;;;;5070758;28;20190;-72
2023/08/07 03:49:23;;;;;;;23.58;6.10;;;;;;;;;;5071054;28;20045;-72
2023/08/07 03:51:49;;;;;;;30.13;4.55;;;;;;;;;;5037874;28;20093;-71
2023/08/07 03:54:15;;;;;;;23.10;5.05;;;;;;;;;;5071282;28;20386;-72
2023/08/07 03:56:41;;;;;;;24.98;5.55;;;;;;;;;;5070950;28;20044;-72
2023/08/07 03:59:07;;;;;;;31.40;5.13;;;;;;;;;;5069963;28;20368;-72
2023/08/07 04:01:33;;;;;;;27.75;4.95;;;;;;;;;;5072439;28;20048;-71
2023/08/07 04:03:59;;;;;;;30.08;5.45;;;;;;;;;;5074340;28;20036;-71
2023/08/07 04:06:26;;;;;;;30.40;5.60;;;;;;;;;;5073516;28;20429;-71
2023/08/07 04:08:53;;;;;;;32.83;5.68;;;;;;;;;;5074138;28;20501;-71
2023/08/07 04:11:19;;;;;;;30.73;6.05;;;;;;;;;;5074491;28;20115;-71
2023/08/07 04:13:45;;;;;;;30.88;6.72;;;;;;;;;;5074495;28;20090;-71
2023/08/07 04:16:11;;;;;;;37.38;7.05;;;;;;;;;;5074199;28;20040;-71
2023/08/07 04:18:37;;;;;;;32.30;6.03;;;;;;;;;;5074092;28;20056;-72
2023/08/07 04:21:03;;;;;;;43.05;6.47;;;;;;;;;;5057529;28;20041;-71
2023/08/07 04:23:31;;;;;;;34.72;6.53;;;;;;;;;;5074656;28;20131;-71
2023/08/07 04:25:57;;;;;;;36.08;5.90;;;;;;;;;;5074093;28;20136;-72
2023/08/07 04:28:24;;;;;;;31.27;5.03;;;;;;;;;;5074213;28;20040;-72
2023/08/07 04:30:51;;;;;;;37.50;6.25;;;;;;;;;;5057741;28;20363;-72
2023/08/07 04:33:17;;;;;;;30.50;6.53;;;;;;;;;;5074141;28;20043;-71
2023/08/07 04:35:43;;;;;;;35.20;5.85;;;;;;;;;;5057300;28;20036;-72
2023/08/07 04:38:09;;;;;;;32.40;5.20;;;;;;;;;;5057359;28;20067;-72
2023/08/07 04:40:35;;;;;;;26.70;5.35;;;;;;;;;;5073877;28;20048;-72
2023/08/07 04:43:02;;;;;;;22.27;4.93;;;;;;;;;;5074009;28;20043;-72
2023/08/07 04:45:28;;;;;;;25.67;5.20;;;;;;;;;;5074118;28;20086;-72
2023/08/07 04:47:54;;;;;;;21.85;5.60;;;;;;;;;;5073570;28;20056;-72
2023/08/07 04:50:20;;;;;;;25.88;6.13;;;;;;;;;;5057080;28;20086;-72
2023/08/07 04:52:46;;;;;;;32.95;6.72;;;;;;;;;;5073655;28;20068;-72
2023/08/07 04:55:12;;;;;;;34.88;6.15;;;;;;;;;;5074115;28;20072;-72
2023/08/07 04:57:38;;;;;;;34.85;6.13;;;;;;;;;;5057309;28;20048;-72
2023/08/07 05:00:05;;;;;;;30.55;6.10;;;15.10;99.90;;;;;;5073440;28;20055;-72
2023/08/07 05:02:31;;;;;;;32.72;6.28;;;;;;;;;;5073436;28;20040;-72
2023/08/07 05:04:57;;;;;;;35.72;6.03;;;;;;;;;;5073609;28;20067;-72
2023/08/07 05:07:23;;;;;;;30.48;6.75;;;;;;;;;;5073460;28;20044;-72
2023/08/07 05:09:50;;;;;;;31.77;6.10;;;;;;;;;;5056789;28;20502;-72
2023/08/07 05:12:16;;;;;;;32.17;5.93;;;;;;;;;;5073317;28;20470;-72
2023/08/07 05:14:42;;;;;;;29.55;6.00;;;;;;;;;;5073457;28;20409;-72
2023/08/07 05:17:09;;;;;;;38.75;7.00;;;;;;;;;;5056753;28;20036;-72
2023/08/07 05:19:35;;;;;;;36.30;6.90;;;;;;;;;;5073508;28;20432;-72
2023/08/07 05:22:01;;;;;;;35.22;6.55;;;;;;;;;;5073566;28;20039;-72
2023/08/07 05:24:27;;;;;;;39.85;5.47;;;;;;;;;;5056334;28;20033;-72
2023/08/07 05:26:53;;;;;;;32.13;6.63;;;;;;;;;;5056222;28;20087;-72
2023/08/07 05:29:19;;;;;;;25.30;5.65;;;;;;;;;;5073251;28;20498;-72
2023/08/07 05:31:45;;;;;;;41.20;8.23;;;;;;;;;;5056262;28;20067;-72
2023/08/07 05:34:11;;;;;;;32.13;7.25;;;;;;;;;;5056585;28;20090;-72
2023/08/07 05:36:39;;;;;;;33.28;8.10;;;;;;;;;;5072396;28;20044;-72
2023/08/07 05:39:05;;;;;;;41.83;6.57;;;;;;;;;;5072981;28;20040;-72
2023/08/07 05:41:31;;;;;;;34.17;5.93;;;;;;;;;;5072824;28;20528;-72
2023/08/07 05:43:57;;;;;;;35.55;5.88;;;;;;;;;;5056258;28;20063;-72
2023/08/07 05:46:23;;;;;;;27.55;4.95;;;;;;;;;;5072464;28;20047;-72
2023/08/07 05:48:49;;;;;;;29.38;5.40;;;;;;;;;;5072243;28;20047;-72
2023/08/07 05:51:15;;;;;;;23.17;5.32;;;;;;;;;;5056044;28;20328;-72
2023/08/07 05:53:41;;;;;;;28.27;5.57;;;;;;;;;;5072385;28;20082;-71
2023/08/07 05:56:07;;;;;;;30.02;5.68;;;;;;;;;;5072164;28;20040;-72
2023/08/07 05:58:33;;;;;;;33.20;5.88;;;;;;;;;;5072332;28;20134;-72
2023/08/07 06:00:59;;;;;;;20.77;4.25;;;;;;;;;;5055657;28;20428;-72
2023/08/07 06:03:26;;;;;;;22.75;4.43;;;;;;;;;;5055887;28;20046;-72
2023/08/07 06:05:52;;;;;;;20.50;5.13;;;;;;;;;;5072154;28;20040;-71
2023/08/07 06:08:18;;;;;;;27.52;4.15;;;;;;;;;;5055592;28;20032;-70
2023/08/07 06:10:44;;;;;;;18.38;4.15;;;;;;;;;;5072430;28;20067;-72
2023/08/07 06:13:10;;;;;;;20.45;4.35;;;;;;;;;;5071535;28;20044;-72
2023/08/07 06:15:37;;;;;;;24.35;4.15;;;;;;;;;;5071970;28;20502;-69
2023/08/07 06:18:03;;;;;;;23.45;3.78;;;;;;;;;;5072302;28;20044;-72
2023/08/07 06:20:29;;;;;;;23.85;3.83;;;;;;;;;;5072155;28;20044;-73
2023/08/07 06:22:55;;;;;;;27.65;4.85;;;;;;;;;;5071683;28;20083;-73
2023/08/07 06:25:21;;;;;;;27.83;5.53;;;;;;;;;;5071651;28;20041;-72
2023/08/07 06:27:47;;;;;;;26.90;4.97;;;;;;;;;;5050154;28;20041;-72
2023/08/07 06:30:14;;;;;;;33.42;5.22;;;;;;;;;;5051928;28;20128;-73
2023/08/07 06:32:40;;;;;;;16.67;4.00;;;;;;;;;;5058882;28;20052;-76
2023/08/07 06:35:06;;;;;;;27.20;4.70;;;;;;;;;;5070774;28;20040;-73
2023/08/07 06:37:32;;;;;;;23.83;4.00;;;;;;;;;;5071133;28;20158;-73
2023/08/07 06:39:58;;;;;;;24.85;4.85;;;;;;;;;;5052930;28;20052;-73
2023/08/07 06:42:25;;;;;;;23.92;4.47;;;;;;;;;;5054228;28;20367;-73
2023/08/07 06:44:51;;;;;;;22.98;4.10;;;;;;;;;;5071236;28;20040;-73
2023/08/07 06:47:17;;;;;;;20.52;4.57;;;;;;;;;;5105174;28;20044;-73
2023/08/07 06:49:43;;;;;;;27.08;5.40;;;;;;;;;;5070940;28;20040;-73
2023/08/07 06:52:09;;;;;;;21.08;5.05;;;;;;;;;;5071092;28;20043;-73
2023/08/07 06:54:35;;;;;;;32.03;5.35;;;;;;;;;;5054250;28;20375;-73
2023/08/07 06:57:01;;;;;;;14.63;4.00;;;;;;;;;;5070805;28;20049;-73
2023/08/07 06:59:27;;;;;;;20.73;4.88;;;;;;;;;;5070657;28;20097;-72
2023/08/07 07:01:53;;;;;;;24.58;5.97;;;;;;;;;;5071302;28;20478;-73
2023/08/07 07:04:19;;;;;;;29.23;4.90;;;;;;;;;;5070369;28;20067;-73
2023/08/07 07:06:45;;;;;;;21.17;4.68;;;;;;;;;;5071100;28;20047;-73
2023/08/07 07:09:15;;;;;;;17.17;4.50;;;;;;;;;;5070400;28;20040;-72
2023/08/07 07:11:42;;;;;;;20.80;4.35;;;;;;;;;;5071008;28;20532;-72
2023/08/07 07:14:08;;;;;;;27.67;4.28;;;;;;;;;;5070923;28;20398;-73
2023/08/07 07:16:35;;;;;;;20.95;5.85;;;;;;;;;;5070923;28;20156;-72
2023/08/07 07:19:02;;;;;;;23.02;4.47;;;;;;;;;;5070552;28;20053;-72
2023/08/07 07:21:28;;;;;;;14.38;4.47;;;;;;;;;;5070615;28;20040;-72
2023/08/07 07:23:54;;;;;;;24.48;4.90;;;;;;;;;;5070479;28;20040;-73
2023/08/07 07:26:20;;;;;;;26.35;6.35;;;;;;;;;;5070492;28;20032;-73
2023/08/07 07:28:46;;;;;;;31.48;5.57;;;;;;;;;;5067247;28;20075;-73
2023/08/07 07:31:12;;;;;;;20.20;4.75;;;;;;;;;;5069879;28;20051;-72
2023/08/07 07:33:39;;;;;;;15.90;3.83;;;;;;;;;;5053730;28;20041;-72
2023/08/07 07:36:06;;;;;;;14.57;4.28;;;;;;;;;;5071627;28;20040;-72
2023/08/07 07:38:32;;;;;;;24.15;5.50;;;;;;;;;;5058315;28;20040;-72
2023/08/07 07:40:58;;;;;;;22.13;4.25;;;;;;;;;;5056411;28;20037;-72
2023/08/07 07:43:24;;;;;;;30.83;5.10;;;;;;;;;;5100289;28;20036;-72
2023/08/07 07:45:50;;;;;;;25.15;4.72;;;;;;;;;;5074290;28;20052;-72
2023/08/07 07:48:17;;;;;;;22.23;4.68;;;;;;;;;;5074050;28;20052;-72
2023/08/07 07:50:43;;;;;;;24.63;5.55;;;;;;;;;;5074895;28;20123;-72
2023/08/07 07:53:09;;;;;;;23.02;5.22;;;;;;;;;;5074324;28;20090;-72
2023/08/07 07:55:35;;;;;;;24.65;5.03;;;;;;;;;;5070446;28;20494;-72
2023/08/07 07:58:01;;;;;;;22.40;4.60;;;;;;;;;;5074370;28;20080;-72
2023/08/07 08:00:27;;;;;;;21.90;4.85;;;;;;;;;;5074086;28;20630;-72
2023/08/07 08:02:53;;;;;;;26.23;4.22;;;;;;;;;;5073810;28;20049;-72
2023/08/07 08:05:20;;;;;;;21.58;4.63;;;;;;;;;;5073502;28;20120;-72
2023/08/07 08:07:46;;;;;;;20.25;4.70;;;;;;;;;;5074016;28;20080;-72
2023/08/07 08:10:13;;;;;;;17.35;4.47;;;;;;;;;;5074277;28;20033;-72
2023/08/07 08:12:39;;;;;;;17.27;4.93;;;;;;;;;;5056950;28;20123;-72
2023/08/07 08:15:05;;;;;;;19.90;3.95;;;;;;;;;;5057618;28;20131;-72
2023/08/07 08:17:32;;;;;;;21.17;4.50;;;;;;;;;;5057437;28;20060;-73
2023/08/07 08:19:58;;;;;;;23.42;4.00;;;;;;;;;;5074466;28;20056;-72
2023/08/07 08:22:24;;;;;;;22.38;3.45;;;;;;;;;;5073958;28;20127;-73
2023/08/07 08:32:21;;;;;;;27.10;3.90;;;;;;;;;;5908164;23;21385;31
2023/08/07 08:38:01;;;;;;;21.25;3.83;;;;;;;;;;4960004;23;20056;-72
2023/08/07 08:40:27;;;;;;;16.15;4.25;;;;;;;;;;4896686;29;20052;-80
2023/08/07 08:42:57;;;;;;;28.70;5.00;;;;;;;;;;4883180;29;20497;-80
2023/08/07 08:45:25;;;;;;;20.65;3.60;;;16.50;99.90;;;;;;4880181;29;20052;-81
2023/08/07 08:47:52;;;;;;;18.88;4.38;;;;;;;;;;4896914;29;20056;-79
2023/08/07 08:50:18;;;;;;;15.75;4.55;;;;;;;;;;4881848;29;20059;-80
2023/08/07 08:52:45;;;;;;;19.50;3.92;;;16.70;99.90;;;;;;4898895;29;20041;-80
2023/08/07 08:55:12;;;;;;;18.77;4.60;;;16.90;99.90;;;;;;4870019;29;20033;-72
2023/08/07 08:57:39;;;;;;;14.55;3.10;;;;;;;;;;4893826;29;20100;-73
2023/08/07 09:00:20;;;;;;;21.38;4.18;;;;;;;;;;4892770;29;20041;-72
2023/08/07 09:02:47;;;;;;;18.23;4.28;;;;;;;;;;4891669;29;20123;-72
2023/08/07 09:05:15;;;;;;;21.33;4.35;;;;;;;;;;4866414;29;20053;-72
2023/08/07 09:07:41;;;;;;;21.77;4.25;;;;;;;;;;4879789;29;20127;-72
2023/08/07 09:10:08;;;;;;;16.73;3.83;;;;;;;;;;4880862;29;20467;-72
2023/08/07 09:12:34;;;;;;;16.08;4.35;;;;;;;;;;4897571;29;20036;-72
2023/08/07 09:15:04;;;;;;;17.00;3.70;;;16.50;99.80;;;;;;4882295;29;20043;-72
2023/08/07 09:17:34;;;;;;;23.55;3.80;;;;;;;;;;4898334;29;20108;-72
2023/08/07 09:20:00;;;;;;;13.88;3.70;;;;;;;;;;4895112;29;20047;-72
2023/08/07 09:22:26;;;;;;;17.80;4.78;;;;;;;;;;4849068;29;20048;-72
2023/08/07 09:24:52;;;;;;;12.63;3.63;;;;;;;;;;4884831;29;20386;-72
2023/08/07 09:27:19;;;;;;;22.20;3.90;;;;;;;;;;4896861;29;20495;-72
2023/08/07 09:29:47;;;;;;;20.70;4.28;;;;;;;;;;4897600;29;20033;-72
2023/08/07 09:32:13;;;;;;;19.83;4.18;;;;;;;;;;4895610;29;20040;-72
2023/08/07 09:34:42;;;;;;;21.13;3.95;;;17.20;99.00;;;;;;4898014;29;20041;-72
2023/08/07 09:37:09;;;;;;;14.43;4.00;;;17.30;98.60;;;;;;4875833;29;20075;-72
2023/08/07 09:39:36;;;;;;;16.27;3.47;;;17.30;97.60;;;;;;4889775;29;20137;-72
2023/08/07 09:42:12;;;;;;;22.70;4.30;;;17.50;98.00;;;;;;4895323;29;20607;-72
2023/08/07 09:44:38;;;;;;;21.98;3.58;;;;;;;;;;4897273;29;20053;-72
2023/08/07 09:47:18;;;;;;;24.00;4.13;;;17.30;98.60;;;;;;4897655;29;20443;-72
2023/08/07 09:49:44;;;;;;;18.95;4.25;;;;;;;;;;4897665;29;20051;-72
2023/08/07 09:52:18;;;;;;;19.42;3.22;;;17.60;98.50;;;;;;4876185;29;20040;-72
2023/08/07 09:54:44;;;;;;;17.25;4.00;;;;;;;;;;4895297;29;20053;-72
2023/08/07 09:57:10;;;;;;;19.25;3.80;;;;;;;;;;4893837;29;20057;-72
2023/08/07 09:59:36;;;;;;;24.15;3.90;;;;;;;;;;4879028;29;20045;-72
2023/08/07 10:02:03;;;;;;;16.80;3.63;;;;;;;;;;4880638;29;20075;-72
2023/08/07 10:04:30;;;;;;;11.80;3.55;;;;;;;;;;4897849;29;20048;-73
2023/08/07 10:06:56;;;;;;;18.00;3.47;;;;;;;;;;4893816;29;20041;-73
2023/08/07 10:09:22;;;;;;;19.58;3.65;;;;;;;;;;4862099;29;20079;-72
2023/08/07 10:11:50;;;;;;;19.05;3.78;;;17.40;97.70;;;;;;4890719;29;20433;-71
2023/08/07 10:14:16;;;;;;;20.15;3.33;;;;;;;;;;4878363;29;20049;-71
2023/08/07 10:16:43;;;;;;;19.98;4.10;;;;;;;;;;4896002;29;20040;-71
2023/08/07 10:19:09;;;;;;;21.55;2.92;;;17.90;96.10;;;;;;4882697;29;20045;-72
2023/08/07 10:21:40;;;;;;;18.00;3.40;;;17.70;96.50;;;;;;4893822;29;20076;-72
2023/08/07 10:24:07;;;;;;;24.65;4.40;;;17.90;96.60;;;;;;4878477;29;20048;-71
2023/08/07 10:26:41;;;;;;;15.73;3.30;;;18.00;97.30;;;;;;4891553;29;20045;-71
2023/08/07 10:29:07;;;;;;;16.58;3.33;;;;;;;;;;4897308;29;20044;-71
2023/08/07 10:31:34;;;;;;;15.48;3.13;;;;;;;;;;4897157;29;20052;-71
2023/08/07 10:34:00;;;;;;;16.08;3.20;;;;;;;;;;4908251;29;20119;-71
2023/08/07 10:36:33;;;;;;;14.43;3.10;;;18.30;95.80;;;;;;4906468;29;20375;-71
2023/08/07 10:39:11;;;;;;;9.68;2.75;;;18.30;94.80;;;;;;4903390;29;20052;-71
2023/08/07 10:41:45;;;;;;;11.45;2.75;;;;;;;;;;4903276;29;20060;-71
2023/08/07 10:44:19;;;;;;;13.35;3.17;;;;;;;;;;4895635;29;20040;-71
2023/08/07 10:47:03;;;;;;;15.70;3.15;;;;;;;;;;4892101;29;20059;-71
2023/08/07 10:49:36;;;;;;;18.70;3.10;;;18.50;95.60;;;;;;4892810;29;20037;-71
2023/08/07 10:52:24;;;;;;;15.57;3.05;;;;;;;;;;4881285;29;20040;-71
2023/08/07 10:54:50;;;;;;;14.40;3.15;;;;;;;;;;4880829;29;20080;-72
2023/08/07 10:57:17;;;;;;;20.95;3.63;;;18.50;95.50;;;;;;4896653;29;20047;-71
2023/08/07 10:59:55;;;;;;;13.35;3.28;;;18.30;94.40;;;;;;4896759;29;20059;-67
2023/08/07 11:02:26;;;;;;;18.77;3.10;;;18.20;94.30;;;;;;4896707;29;20067;-67
2023/08/07 11:04:53;;;;;;;14.52;3.22;;;18.40;95.30;;;;;;4896482;29;20695;-67
2023/08/07 11:07:29;;;;;;;16.15;3.38;;;18.60;94.70;;;;;;4896470;29;20087;-67
2023/08/07 11:09:56;;;;;;;16.23;3.92;;;;;;;;;;4879760;29;20037;-67
2023/08/07 11:12:25;;;;;;;15.52;3.67;;;18.60;95.80;;;;;;4890806;29;20081;-67
2023/08/07 11:14:52;;;;;;;18.13;3.28;;;;;;;;;;4890622;29;20056;-67
2023/08/07 11:17:19;;;;;;;17.90;4.13;;;;;;;;;;4867839;29;20041;-67
2023/08/07 11:19:47;;;;;;;15.65;3.90;;;18.70;95.40;;;;;;4890451;29;20048;-67
2023/08/07 11:22:18;;;;;;;17.23;3.55;;;18.60;96.10;;;;;;4905605;29;20047;-67
2023/08/07 11:24:46;;;;;;;15.02;3.20;;;18.60;95.90;;;;;;4914842;29;20048;-67
2023/08/07 11:27:11;;;;;;;11.45;3.05;;;19.40;97.40;;;;;;4893442;29;20339;-67
2023/08/07 11:29:37;;;;;;;10.52;3.25;;;;;;;;;;4893539;29;20059;-68
2023/08/07 11:32:07;;;;;;;13.25;3.30;;;;;;;;;;4897040;29;20499;-67
2023/08/07 11:34:32;;;;;;;13.63;3.70;;;17.60;99.90;;;;;;4896028;29;20565;-67
2023/08/07 11:37:00;;;;;;;18.58;3.63;;;;;;;;;;4880145;29;20048;-67
2023/08/07 11:39:26;;;;;;;11.98;3.10;;;;;;;;;;4896454;29;20423;-67
2023/08/07 11:41:55;;;;;;;13.75;2.92;;;;;;;;;;4893181;29;20087;-67
2023/08/07 11:44:21;;;;;;;16.70;3.78;;;;;;;;;;4893022;29;20036;-67
2023/08/07 11:46:47;;;;;;;19.05;3.75;;;;;;;;;;4891140;29;20083;-67
2023/08/07 11:49:13;;;;;;;15.48;3.55;;;;;;;;;;4877926;29;20044;-67
2023/08/07 11:51:40;;;;;;;16.55;3.50;;;;;;;;;;4886165;29;20128;-66
2023/08/07 11:54:06;;;;;;;21.75;3.38;;;;;;;;;;4903755;29;20127;-66
2023/08/07 11:56:32;;;;;;;12.25;3.42;;;;;;;;;;4892268;29;20060;-66
2023/08/07 11:58:58;;;;;;;16.63;3.63;;;;;;;;;;4885863;29;20048;-66
2023/08/07 12:01:26;;;;;;;11.80;3.55;;;18.00;99.30;;;;;;4896266;29;20123;-66
2023/08/07 12:04:05;;;;;;;15.88;3.63;;;18.00;99.20;;;;;;4896200;29;20470;-66
2023/08/07 12:06:31;;;;;;;13.88;3.40;;;;;;;;;;4896202;29;20131;-66
2023/08/07 12:08:58;;;;;;;11.13;2.78;;;;;;;;;;4903533;29;20115;-66
2023/08/07 12:11:24;;;;;;;13.23;3.25;;;;;;;;;;4885522;29;20053;-66
2023/08/07 12:13:50;;;;;;;10.48;2.92;;;;;;;;;;4880711;29;20044;-66
2023/08/07 12:16:17;;;;;;;13.63;3.22;;;;;;;;;;4886116;29;20049;-66
2023/08/07 12:18:47;;;;;;;7.38;2.97;;;19.30;99.90;;;;;;4898610;29;20048;-66
2023/08/07 12:21:15;;;;;;;13.20;3.60;;;;;;;;;;4896120;29;20048;-66
2023/08/07 12:23:41;;;;;;;11.18;3.03;;;;;;;;;;4899627;29;20048;-66
2023/08/07 12:26:07;;;;;;;11.70;3.00;;;;;;;;;;4896290;29;20045;-66
2023/08/07 12:28:34;;;;;;;16.00;3.58;;;19.30;95.30;;;;;;4884739;29;20048;-66
2023/08/07 12:31:00;;;;;;;11.43;3.33;;;19.10;99.90;;;;;;4896349;29;20045;-67
2023/08/07 12:33:26;;;;;;;15.38;3.67;;;19.40;99.90;;;;;;4895013;29;20180;-66
2023/08/07 12:35:53;;;;;;;20.85;4.00;;;;;;;;;;4899217;29;20044;-66
2023/08/07 12:38:20;;;;;;;16.48;4.00;;;;;;;;;;4899482;29;20061;-66
2023/08/07 12:40:46;;;;;;;21.45;3.42;;;;;;;;;;4896555;29;20045;-67
2023/08/07 12:43:12;;;;;;;15.20;3.35;;;;;;;;;;4895796;29;20041;-67
2023/08/07 12:45:38;;;;;;;13.65;3.50;;;;;;;;;;4902010;29;20047;-66
2023/08/07 12:48:05;;;;;;;16.38;3.58;;;18.30;96.40;;;;;;4899462;29;20084;-66
2023/08/07 12:50:31;;;;;;;21.23;3.65;;;;;;;;;;4896715;29;20045;-66
2023/08/07 12:52:58;;;;;;;12.30;4.05;;;;;;;;;;4868358;29;20406;-66
2023/08/07 12:55:24;;;;;;;16.35;3.72;;;;;;;;;;4883628;29;20131;-66
2023/08/07 12:57:50;;;;;;;19.00;3.92;;;;;;;;;;4892767;29;20045;-66
2023/08/07 13:00:16;;;;;;;16.55;3.97;;;17.30;99.90;;;;;;4892125;29;20107;-67
2023/08/07 13:02:44;;;;;;;15.82;3.00;;;17.00;99.10;;;;;;4895256;29;20045;-66
2023/08/07 13:05:10;;;;;;;19.25;3.90;;;;;;;;;;4881772;29;20525;-66
2023/08/07 13:07:39;;;;;;;15.00;3.55;;;18.20;96.10;;;;;;4898457;29;20063;-66
2023/08/07 13:10:08;;;;;;;13.57;3.22;;;18.70;99.50;;;;;;4898085;29;20072;-66
2023/08/07 13:12:36;;;;;;;17.73;3.60;;;18.60;95.90;;;;;;4882546;29;20112;-66
2023/08/07 13:15:03;;;;;;;18.17;3.47;;;;;;;;;;4899511;29;20048;-66
2023/08/07 13:17:29;;;;;;;11.52;3.38;;;;;;;;;;4898636;29;20049;-67
2023/08/07 13:19:55;;;;;;;11.15;3.75;;;19.30;99.40;;;;;;4898235;29;20485;-68
2023/08/07 13:22:21;;;;;;;14.60;3.38;;;;;;;;;;4894849;29;20189;-67
2023/08/07 13:24:47;;;;;;;20.48;3.45;;;19.70;98.40;;;;;;4879601;29;20045;-67
2023/08/07 13:27:13;;;;;;;13.65;3.10;;;19.90;98.40;;;;;;4874485;29;20044;-67
2023/08/07 13:29:39;;;;;;;13.05;3.50;;;;;;;;;;4897162;29;20056;-67
2023/08/07 13:32:09;;;;;;;14.43;3.50;;;;;;;;;;4881953;29;20467;-68
2023/08/07 13:34:38;;;;;;;16.70;3.63;;;20.00;98.30;;;;;;4896245;29;20087;-67
2023/08/07 13:37:07;;;;;;;11.20;2.70;;;19.50;92.70;;;;;;4890832;29;21166;-67
2023/08/07 13:39:33;;;;;;;11.80;3.75;;;20.10;93.80;;;;;;4879999;29;20060;-67
2023/08/07 13:42:02;;;;;;;17.20;3.72;;;;;;;;;;4895207;29;20494;-67
2023/08/07 13:44:28;;;;;;;14.57;3.67;;;;;;;;;;4889107;29;20131;-67
2023/08/07 13:46:55;;;;;;;14.45;3.30;;;19.70;93.60;;;;;;4897424;29;20127;-67
2023/08/07 13:49:23;;;;;;;15.55;4.45;;;20.30;97.30;;;;;;4899313;29;20040;-67
2023/08/07 13:51:49;;;;;;;13.63;3.33;;;18.40;96.80;;;;;;4897422;29;21241;-67
2023/08/07 13:54:15;;;;;;;18.75;3.15;;;;;;;;;;4894999;29;20096;-65
2023/08/07 13:56:41;;;;;;;19.42;3.65;;;;;;;;;;4895624;29;20037;-67
2023/08/07 13:59:08;;;;;;;13.15;3.00;;;;;;;;;;4896487;29;20483;-66
2023/08/07 14:01:35;;;;;;;20.85;3.20;;;20.20;96.60;;;;;;4896652;29;20091;-66
2023/08/07 14:04:02;;;;;;;12.00;3.25;;;19.70;92.60;;;;;;4896315;29;20513;-66
2023/08/07 14:06:27;;;;;;;18.10;3.58;;;20.40;96.40;;;;;;4893104;29;20048;-66
2023/08/07 14:08:53;;;;;;;11.88;3.00;;;19.20;93.60;;;;;;4895452;29;20068;-66
2023/08/07 14:11:20;;;;;;;18.25;3.17;;;;;;;;;;4879485;29;21631;-73
2023/08/07 14:13:46;;;;;;;11.57;2.83;;;19.20;93.90;;;;;;4879040;29;20047;-72
2023/08/07 14:16:12;;;;;;;12.57;3.30;;;20.70;95.60;;;;;;4896544;29;20043;-72